createdAt,value
2023-03-29T00:02:36.306Z,71.90
2023-03-29T00:06:41.948Z,72.26
2023-03-29T00:10:44.597Z,71.91
2023-03-29T00:14:47.364Z,71.88
2023-03-29T00:18:50.022Z,71.86
2023-03-29T00:22:54.034Z,72.19
2023-03-29T00:26:56.692Z,71.84
2023-03-29T00:31:06.582Z,71.91
2023-03-29T00:35:09.851Z,72.02
2023-03-29T00:39:13.833Z,72.06
2023-03-29T00:43:16.978Z,73.12
2023-03-29T00:47:25.911Z,73.23
2023-03-29T00:51:32.090Z,72.89
2023-03-29T00:55:38.785Z,72.36
2023-03-29T00:59:43.315Z,72.99
2023-03-29T01:03:50.944Z,73.04
2023-03-29T01:07:59.096Z,72.96
2023-03-29T01:12:09.904Z,73.36
2023-03-29T01:16:14.988Z,73.38
2023-03-29T01:20:23.077Z,73.54
2023-03-29T01:24:48.178Z,73.55
2023-03-29T01:28:58.092Z,72.78
2023-03-29T01:33:07.513Z,71.65
2023-03-29T01:37:13.651Z,72.16
2023-03-29T01:41:16.572Z,71.64
2023-03-29T01:45:25.621Z,71.89
2023-03-29T01:49:35.424Z,72.02
2023-03-29T01:53:40.817Z,72.60
2023-03-29T01:57:46.442Z,73.27
2023-03-29T02:01:54.454Z,73.88
2023-03-29T02:05:58.919Z,73.70
2023-03-29T02:10:03.262Z,73.53
2023-03-29T02:14:06.500Z,74.23
2023-03-29T02:18:11.317Z,74.55
2023-03-29T02:22:16.808Z,74.44
2023-03-29T02:26:19.616Z,74.57
2023-03-29T02:30:23.615Z,74.72
2023-03-29T02:34:31.878Z,75.47
2023-03-29T02:38:35.824Z,75.08
2023-03-29T02:42:39.227Z,75.70
2023-03-29T02:46:42.932Z,76.50
2023-03-29T02:50:49.551Z,76.49
2023-03-29T02:54:55.323Z,76.86
2023-03-29T02:58:58.017Z,77.25
2023-03-29T03:03:02.039Z,77.75
2023-03-29T03:07:06.740Z,78.21
2023-03-29T03:11:10.329Z,78.73
2023-03-29T03:15:13.758Z,80.07
2023-03-29T03:19:16.675Z,80.69
2023-03-29T03:23:20.679Z,81.61
2023-03-29T03:27:23.323Z,82.52
2023-03-29T03:31:26.098Z,83.45
2023-03-29T03:35:28.833Z,84.30
2023-03-29T03:39:33.363Z,85.26
2023-03-29T03:43:36.461Z,88.53
2023-03-29T03:47:39.259Z,88.34
2023-03-29T03:51:45.363Z,89.78
2023-03-29T03:55:50.907Z,92.85
2023-03-29T03:59:53.588Z,91.17
2023-03-29T04:03:56.439Z,88.39
2023-03-29T04:07:59.143Z,87.86
2023-03-29T04:12:03.171Z,88.48
2023-03-29T04:16:07.182Z,88.56
2023-03-29T04:20:12.463Z,89.63
2023-03-29T04:24:15.474Z,89.70
2023-03-29T04:28:19.729Z,89.40
2023-03-29T04:32:22.380Z,89.67
2023-03-29T04:36:25.374Z,89.74
2023-03-29T04:40:29.040Z,89.92
2023-03-29T04:44:33.586Z,90.19
2023-03-29T04:48:37.434Z,90.33
2023-03-29T04:52:41.000Z,90.27
2023-03-29T04:56:43.641Z,89.89
2023-03-29T05:00:47.752Z,90.16
2023-03-29T05:04:50.628Z,89.96
2023-03-29T05:08:53.363Z,90.07
2023-03-29T05:12:56.269Z,90.38
2023-03-29T05:17:01.246Z,90.04
2023-03-29T05:21:05.042Z,90.27
2023-03-29T05:25:09.221Z,90.49
2023-03-29T05:29:12.683Z,90.06
2023-03-29T05:33:16.707Z,90.36
2023-03-29T05:37:19.670Z,90.33
2023-03-29T05:41:22.802Z,90.29
2023-03-29T05:45:28.489Z,90.71
2023-03-29T05:49:32.895Z,90.35
2023-03-29T05:53:35.590Z,89.91
2023-03-29T05:57:39.650Z,89.65
2023-03-29T06:01:42.716Z,90.05
2023-03-29T06:05:49.668Z,90.54
2023-03-29T06:09:52.614Z,90.88
2023-03-29T06:13:55.420Z,90.82
2023-03-29T06:17:58.171Z,90.82
2023-03-29T06:22:02.672Z,90.66
2023-03-29T06:26:06.101Z,90.91
2023-03-29T06:30:10.646Z,90.86
2023-03-29T06:34:13.787Z,90.75
2023-03-29T06:38:18.007Z,90.18
2023-03-29T06:42:21.914Z,90.08
2023-03-29T06:46:24.776Z,89.92
2023-03-29T06:50:27.543Z,89.66
2023-03-29T06:54:31.705Z,90.09
2023-03-29T06:58:34.626Z,89.83
2023-03-29T07:02:38.152Z,89.52
2023-03-29T07:06:40.914Z,89.37
2023-03-29T07:10:47.473Z,89.55
2023-03-29T07:14:50.287Z,89.15
2023-03-29T07:18:53.000Z,89.11
2023-03-29T07:22:56.025Z,88.16
2023-03-29T07:27:04.467Z,87.88
2023-03-29T07:31:12.617Z,87.98
2023-03-29T07:35:17.436Z,88.23
2023-03-29T07:39:20.428Z,88.49
2023-03-29T07:43:25.062Z,88.16
2023-03-29T07:47:28.662Z,87.85
2023-03-29T07:51:31.699Z,87.39
2023-03-29T07:55:34.442Z,87.41
2023-03-29T07:59:38.589Z,86.92
2023-03-29T08:03:41.507Z,87.14
2023-03-29T08:07:46.081Z,86.45
2023-03-29T08:11:49.007Z,86.28
2023-03-29T08:15:53.168Z,86.14
2023-03-29T08:19:56.611Z,86.38
2023-03-29T08:23:59.314Z,86.34
2023-03-29T08:28:02.016Z,86.29
2023-03-29T08:32:07.006Z,86.67
2023-03-29T08:36:10.175Z,85.87
2023-03-29T08:40:20.299Z,85.58
2023-03-29T08:44:42.577Z,84.11
2023-03-29T08:48:54.622Z,83.63
2023-03-29T08:53:00.103Z,83.86
2023-03-29T08:57:12.625Z,83.78
2023-03-29T09:01:15.516Z,83.84
2023-03-29T09:05:27.577Z,82.06
2023-03-29T09:09:34.586Z,82.19
2023-03-29T09:13:44.869Z,80.64
2023-03-29T09:18:02.495Z,80.95
2023-03-29T09:22:16.626Z,80.38
2023-03-29T09:26:28.428Z,78.72
2023-03-29T09:30:36.458Z,77.33
2023-03-29T09:34:44.604Z,78.72
2023-03-29T09:38:54.085Z,77.60
2023-03-29T09:42:58.640Z,77.40
2023-03-29T09:47:08.494Z,77.82
2023-03-29T09:51:13.768Z,78.24
2023-03-29T09:55:21.135Z,78.49
2023-03-29T09:59:23.985Z,76.83
2023-03-29T10:03:28.443Z,77.76
2023-03-29T10:07:44.561Z,76.52
2023-03-29T10:11:53.211Z,76.48
2023-03-29T10:16:03.752Z,76.83
2023-03-29T10:20:14.234Z,75.75
2023-03-29T10:24:20.241Z,74.75
2023-03-29T10:28:26.529Z,74.79
2023-03-29T10:32:34.269Z,74.86
2023-03-29T10:36:41.324Z,74.93
2023-03-29T10:40:47.425Z,74.50
2023-03-29T10:44:56.706Z,74.40
2023-03-29T10:49:02.598Z,73.96
2023-03-29T10:53:12.110Z,72.26
2023-03-29T10:57:22.789Z,71.99
2023-03-29T11:01:35.818Z,71.50
2023-03-29T11:05:43.811Z,72.67
2023-03-29T11:09:54.960Z,72.41
2023-03-29T11:14:07.631Z,72.84
2023-03-29T11:18:32.569Z,73.79
2023-03-29T11:22:43.827Z,72.92
2023-03-29T11:26:56.900Z,73.24
2023-03-29T11:31:09.999Z,73.67
2023-03-29T11:35:28.186Z,72.93
2023-03-29T11:39:40.975Z,73.74
2023-03-29T11:43:48.595Z,73.35
2023-03-29T11:47:54.511Z,74.32
2023-03-29T11:52:06.113Z,73.92
2023-03-29T11:56:13.236Z,72.85
2023-03-29T12:00:21.560Z,72.71
2023-03-29T12:04:31.441Z,71.68
2023-03-29T12:08:40.316Z,72.06
2023-03-29T12:12:47.545Z,72.06
2023-03-29T12:16:53.062Z,70.51
2023-03-29T12:21:00.525Z,71.11
2023-03-29T12:25:08.723Z,72.31
2023-03-29T12:29:31.264Z,72.67
2023-03-29T12:33:46.259Z,72.61
2023-03-29T12:38:01.944Z,73.20
2023-03-29T12:42:14.783Z,72.87
2023-03-29T12:46:20.175Z,72.83
2023-03-29T12:50:28.496Z,73.08
2023-03-29T12:54:34.208Z,72.63
2023-03-29T12:58:53.616Z,72.90
2023-03-29T13:03:04.754Z,72.87
2023-03-29T13:07:15.276Z,72.41
2023-03-29T13:11:29.222Z,71.60
2023-03-29T13:15:36.496Z,70.51
2023-03-29T13:19:48.079Z,69.20
2023-03-29T13:24:00.368Z,69.88
2023-03-29T13:28:13.173Z,70.40
2023-03-29T13:32:33.850Z,69.96
2023-03-29T13:36:52.316Z,70.00
2023-03-29T13:41:04.502Z,70.47
2023-03-29T13:45:17.287Z,69.82
2023-03-29T13:49:24.719Z,69.14
2023-03-29T13:53:32.348Z,68.94
2023-03-29T13:57:40.922Z,69.03
2023-03-29T14:01:50.465Z,68.64
2023-03-29T14:05:59.997Z,67.33
2023-03-29T14:10:03.352Z,67.33
2023-03-29T14:14:08.312Z,67.51
2023-03-29T14:18:11.999Z,68.24
2023-03-29T14:22:18.280Z,68.58
2023-03-29T14:26:21.731Z,69.11
2023-03-29T14:30:28.493Z,69.64
2023-03-29T14:34:31.764Z,69.96
2023-03-29T14:38:37.748Z,69.52
2023-03-29T14:42:41.147Z,68.50
2023-03-29T14:46:46.880Z,70.25
2023-03-29T14:50:50.939Z,71.11
2023-03-29T14:54:57.047Z,70.95
2023-03-29T14:59:04.670Z,71.30
2023-03-29T15:03:14.693Z,70.97
2023-03-29T15:07:17.502Z,70.66
2023-03-29T15:11:24.213Z,70.82
2023-03-29T15:15:27.321Z,71.79
2023-03-29T15:19:31.380Z,71.93
2023-03-29T15:23:39.352Z,71.38
2023-03-29T15:27:44.113Z,70.61
2023-03-29T15:31:55.467Z,70.82
2023-03-29T15:35:58.305Z,69.26
2023-03-29T15:40:05.519Z,68.76
2023-03-29T15:44:09.860Z,67.92
2023-03-29T15:48:16.469Z,64.98
2023-03-29T15:52:19.273Z,63.32
2023-03-29T15:56:22.921Z,64.42
2023-03-29T16:00:27.313Z,66.79
2023-03-29T16:04:29.926Z,68.54
2023-03-29T16:08:33.322Z,69.40
2023-03-29T16:12:38.421Z,70.20
2023-03-29T16:16:42.531Z,70.78
2023-03-29T16:20:45.845Z,71.34
2023-03-29T16:24:48.513Z,71.67
2023-03-29T16:28:51.165Z,72.13
2023-03-29T16:32:55.332Z,72.52
2023-03-29T16:36:58.000Z,72.54
2023-03-29T16:41:01.546Z,72.84
2023-03-29T16:45:04.692Z,73.22
2023-03-29T16:49:08.792Z,73.95
2023-03-29T16:53:11.483Z,74.55
2023-03-29T16:57:14.140Z,74.80
2023-03-29T17:01:19.251Z,75.46
2023-03-29T17:05:23.284Z,76.13
2023-03-29T17:09:28.388Z,75.91
2023-03-29T17:13:32.416Z,76.76
2023-03-29T17:17:35.245Z,76.84
2023-03-29T17:21:39.300Z,76.38
2023-03-29T17:25:44.301Z,75.76
2023-03-29T17:29:46.970Z,76.56
2023-03-29T17:33:51.985Z,77.69
2023-03-29T17:37:56.173Z,77.86
2023-03-29T17:41:58.801Z,78.21
2023-03-29T17:46:01.797Z,78.32
2023-03-29T17:50:05.189Z,77.97
2023-03-29T17:54:09.244Z,78.47
2023-03-29T17:58:11.982Z,79.13
2023-03-29T18:02:17.799Z,79.60
2023-03-29T18:06:20.967Z,79.97
2023-03-29T18:10:25.024Z,80.36
2023-03-29T18:14:27.811Z,80.68
2023-03-29T18:18:30.691Z,81.05
2023-03-29T18:22:34.200Z,80.57
2023-03-29T18:26:38.209Z,80.50
2023-03-29T18:30:40.897Z,80.75
2023-03-29T18:34:43.939Z,80.14
2023-03-29T18:38:46.701Z,80.07
2023-03-29T18:42:51.923Z,80.37
2023-03-29T18:46:55.537Z,80.48
2023-03-29T18:50:59.263Z,81.25
2023-03-29T18:55:02.379Z,81.18
2023-03-29T18:59:06.869Z,80.89
2023-03-29T19:03:10.132Z,80.94
2023-03-29T19:07:13.377Z,81.20
2023-03-29T19:11:16.241Z,81.14
2023-03-29T19:15:20.399Z,81.49
2023-03-29T19:19:26.251Z,81.27
2023-03-29T19:23:28.944Z,81.23
2023-03-29T19:27:31.744Z,81.34
2023-03-29T19:31:37.900Z,81.82
2023-03-29T19:35:41.307Z,81.78
2023-03-29T19:39:44.040Z,82.35
2023-03-29T19:43:46.776Z,82.75
2023-03-29T19:47:54.963Z,83.02
2023-03-29T19:51:58.160Z,82.97
2023-03-29T19:56:02.022Z,83.55
2023-03-29T20:00:08.016Z,83.91
2023-03-29T20:04:12.353Z,84.81
2023-03-29T20:08:15.275Z,84.79
2023-03-29T20:12:18.055Z,84.20
2023-03-29T20:16:25.677Z,84.49
2023-03-29T20:20:29.944Z,83.89
2023-03-29T20:24:34.889Z,83.61
2023-03-29T20:28:37.880Z,83.28
2023-03-29T20:32:41.740Z,83.52
2023-03-29T20:36:46.706Z,83.91
2023-03-29T20:40:49.964Z,84.26
2023-03-29T20:44:53.850Z,83.82
2023-03-29T20:48:56.682Z,83.81
2023-03-29T20:53:04.011Z,84.09
2023-03-29T20:57:07.721Z,83.96
2023-03-29T21:01:13.193Z,83.95
2023-03-29T21:05:16.214Z,83.87
2023-03-29T21:09:23.500Z,83.74
2023-03-29T21:13:26.779Z,83.56
2023-03-29T21:17:29.962Z,83.70
2023-03-29T21:21:33.745Z,84.13
2023-03-29T21:25:38.548Z,83.74
2023-03-29T21:29:41.843Z,84.60
2023-03-29T21:33:44.836Z,85.15
2023-03-29T21:37:47.689Z,85.50
2023-03-29T21:41:52.115Z,86.57
2023-03-29T21:45:55.108Z,87.13
2023-03-29T21:49:57.775Z,87.79
2023-03-29T21:54:00.627Z,88.03
2023-03-29T21:58:04.849Z,88.17
2023-03-29T22:02:07.604Z,88.48
2023-03-29T22:06:14.225Z,88.17
2023-03-29T22:10:22.621Z,87.71
2023-03-29T22:14:29.346Z,87.72
2023-03-29T22:18:42.452Z,88.43
2023-03-29T22:22:49.661Z,88.13
2023-03-29T22:26:52.367Z,88.16
2023-03-29T22:30:56.378Z,88.13
2023-03-29T22:34:59.148Z,88.59
2023-03-29T22:39:01.847Z,88.31
2023-03-29T22:43:05.458Z,88.04
2023-03-29T22:47:10.097Z,87.81
2023-03-29T22:51:12.971Z,87.96
2023-03-29T22:55:15.884Z,87.36
2023-03-29T22:59:18.533Z,87.72
2023-03-29T23:03:23.166Z,88.51
2023-03-29T23:07:25.849Z,88.73
2023-03-29T23:11:28.560Z,88.44
2023-03-29T23:15:32.269Z,88.94
2023-03-29T23:19:36.403Z,88.67
2023-03-29T23:23:39.281Z,88.72
2023-03-29T23:27:43.301Z,88.63
2023-03-29T23:31:47.701Z,88.53
2023-03-29T23:35:51.982Z,88.45
2023-03-29T23:39:54.649Z,88.47
2023-03-29T23:43:57.636Z,88.97
2023-03-29T23:48:00.393Z,88.75
2023-03-29T23:52:04.822Z,88.85
2023-03-29T23:56:08.047Z,88.68
